Station info - map view · info · telemetry · weather · raw · status · beacons · messages · bulletins · browse · moving · my account
Callsign, ship name or locator: Clear       
It is possible to search using wildcards (*?) after a prefix. Example: OH*
APRS station N842DT - show graphs
Map loading...
Comment: W4JEC-8
Mic-E message: In service
Last status: MicroTrak FA v1.428
Location: 33°55.89' N 80°58.48' W - locator EM93MW33AN - show map - static map
5.9 miles Southeast bearing 144° from Columbia, Richland County, South Carolina, United States [?]
6.1 miles South bearing 172° from Forest Acres, Richland County, South Carolina, United States
91.1 miles Northwest bearing 323° from North Charleston, Charleston County, South Carolina, United States
Last position: 2017-04-08 19:41:28 EDT (18d 7h35m ago)
2017-04-08 19:41:28 EDT local time at Columbia, United States [?]
Altitude: 1230 ft
Course: 42°
Speed: 134 MPH
Last telemetry: 2017-04-08 19:41:28 EDT (18d 7h35m ago) – show telemetry
Ch 1: 458, Ch 2: 592, Ch 3: 0, Ch 4: 0, Ch 5: 0
 1     2     3     4     5     6     7     8 
Device: Byonics: TinyTrak3 (tracker)
Last path: N842DT>S3UU8Y via KC4PL-12*,WIDE2-1,qAR,N4HUV-10 (good)
Positions stored: 4291
Stations near current position of N842DT - show more
callsign distance last heard - EDT      callsign distance last heard - EDT
KCUB2.8 miles 329°2017-04-02 16:08:36 CAEFFW45A4.7 miles 330°2017-04-24 02:04:57
KJ4BWK B5.9 miles 325°2017-04-27 02:58:26 KJ4BWK C5.9 miles 325°2017-04-27 02:58:26
KJ4BWK-C5.9 miles 325°2017-04-27 02:58:11 KJ4BWK-B5.9 miles 325°2017-04-27 02:58:11
KJ4BWK-A5.9 miles 325°2017-04-27 02:58:11 KJ4BWK A5.9 miles 325°2017-04-27 02:58:25
N7GZT6.0 miles 284°2017-04-23 11:39:31 CAEFFWIWA6.4 miles 342°2017-04-05 16:35:14
KC4NC-56.5 miles 314°2017-04-25 08:49:00 KC4NC-97.2 miles 303°2017-04-12 18:46:49
KF4BPR7.3 miles 261°2017-04-27 03:15:31 KM4AF-107.4 miles 317°2017-04-12 00:38:05
KM4JGC-97.9 miles 321°2017-04-22 11:02:13 N3JDW-97.9 miles 15°2017-04-02 18:37:04
CAEFFWLDA8.2 miles 358°2017-04-03 18:50:05 KCAE8.2 miles 279°2017-04-02 16:08:12
KC4NC8.5 miles 258°2017-04-27 01:45:05 KMMT10.1 miles 96°2017-04-02 16:11:24
Stations which heard N842DT directly on radio –
callsign pkts first heard - EDT last heard longest (tx => rx) longest at - EDT
K4LKL-10 2 2017-04-08 17:24:21 2017-04-08 17:30:21 EL88WF > EL98AB 15.0 miles 147° 2017-04-08 17:30:21
WC4PEM-9 3 2017-04-08 08:42:27 2017-04-08 08:54:19 EL88XQ > EL98CE 38.4 miles 154° 2017-04-08 08:42:27
W4IZ-1 4 2017-04-08 08:11:02 2017-04-08 08:37:58 EL88WW > EL99IU 81.5 miles 37° 2017-04-08 08:37:58
KR4XN-2 6 2017-04-08 06:58:50 2017-04-08 19:17:33 EM93IN > EM83WM 51.1 miles 265° 2017-04-08 06:58:50
WC4PEM-10 4 2017-04-08 08:58:27 2017-04-08 17:25:50 EL88XB > EL97CV 20.1 miles 127° 2017-04-08 17:25:50
WC4PEM-14 9 2017-04-08 08:34:56 2017-04-08 17:27:20 EL89WB > EL98EG 63.4 miles 152° 2017-04-08 08:34:56
KQ4KX 2 2017-04-08 08:51:32 2017-04-08 08:53:01 EL98AF > EL98CB 16.7 miles 134° 2017-04-08 08:51:32
K4OZS-10 6 2017-04-08 08:22:59 2017-04-08 17:52:48 EL89UQ > EL89XC 39.8 miles 162° 2017-04-08 08:22:59
WR4SG-2 1 2017-04-08 08:06:34 2017-04-08 08:06:34 EM80UL > EM80IQ 60.9 miles 282° 2017-04-08 08:06:34
KQ4KK-5 2 2017-04-08 07:00:19 2017-04-08 07:01:49 EM93IM > EM93CN 27.5 miles 279° 2017-04-08 07:00:19
N4FLA-3 4 2017-04-08 08:39:28 2017-04-08 08:50:04 EL98AH > EL98CP 28.2 miles 28° 2017-04-08 08:50:04
KE4IFI-1 2 2017-04-08 06:52:52 2017-04-08 19:38:30 EM93KS > EM93JV 10.7 miles 327° 2017-04-08 06:52:52
WC4PEM-8 14 2017-04-08 08:39:32 2017-04-08 17:43:49 EL88WW > EL88XD 52.4 miles 174° 2017-04-08 08:42:48
KP2L-5 10 2017-04-08 06:54:20 2017-04-08 19:31:00 EM93KR > EM93EJ 36.3 miles 233° 2017-04-08 06:54:20
WC4PEM-7 1 2017-04-08 09:00:22 2017-04-08 09:00:22 EL87XX > EL97AV 6.1 miles 173° 2017-04-08 09:00:22
WA4USN-9 2 2017-04-08 19:19:03 2017-04-08 19:25:02 EM93EA > EM93RD 59.6 miles 81° 2017-04-08 19:19:03
W4NAS 14 2017-04-08 08:03:33 2017-04-08 18:25:41 EL89UP > EM90CO 71.7 miles 21° 2017-04-08 18:01:46
N6EIV-1 1 2017-04-08 08:08:03 2017-04-08 08:08:03 EM80UK > EM90DF 36.2 miles 110° 2017-04-08 08:08:03
KC4LZN-10 1 2017-04-08 08:39:26 2017-04-08 08:39:26 EL88WU > EL98DS 24.0 miles 104° 2017-04-08 08:39:26
WR4SG-1 6 2017-04-08 07:39:13 2017-04-08 07:54:36 EM81UU > EM81IF 71.8 miles 232° 2017-04-08 07:39:13
NI4CE-14 1 2017-04-08 17:33:20 2017-04-08 17:33:20 EL88WI > EL87QV 47.2 miles 224° 2017-04-08 17:33:20
WD4SEN-1 1 2017-04-08 18:09:14 2017-04-08 18:09:14 EL89UX > EL99AS 23.4 miles 129° 2017-04-08 18:09:14
W4DFU-3 6 2017-04-08 08:15:31 2017-04-08 18:04:45 EM80UB > EL89TP 28.5 miles 186° 2017-04-08 08:15:31
KE4BQI-1 13 2017-04-08 07:51:39 2017-04-08 08:23:07 EM81TG > EM80QC 80.2 miles 193° 2017-04-08 07:51:39
KK4ONE-2 3 2017-04-08 17:29:59 2017-04-08 17:34:06 EL88XE > EL88WH 9.8 miles 331° 2017-04-08 17:29:59
KC4PL-12 6 2017-04-08 06:51:22 2017-04-08 19:41:28 EM93HI > EM93RW 65.1 miles 50° 2017-04-08 19:26:31

Only position packets which were originated by the station are shown here. The range statistics show some extra long hops, because some digipeaters do not correctly add themselves to the digipeater path. Please check the raw packets.
About this site
This page shows real-time information collected from the Automatic Position Reporting System Internet network (APRS-IS). APRS is used by amateur (ham) radio operators to transmit real-time position information, weather data, telemetry and messages over the radio. A vehicle equipped with a GPS receiver, a VHF transmitter or HF transceiver and a small computer device called a tracker transmits it's location, speed and course in a small data packet, which is then received by a nearby iGate receiving site which forwards the packet on the Internet. Systems connected to the Internet can send information on the APRS-IS without a radio transmitter, or collect and display information transmitted anywhere in the world.
FAQ · Blog · Discussion group · Linking to aprs.fi · AIS sites · Service status · Database statistics · Advertising on aprs.fi · Technical details · API · Change log · Planned changes · Credits and thanks · Terms Of Service · iPhone/iPad APRS